Terminal Aerodrome Forecast
Issued by NWS

Home | Current Version | Previous Version | Text Only | Print | Product List | Glossary On
Versions: 1 2 3 4 5 6 7 8 9 10 11 12 13 14 15 16 17 18 19 20 21 22 23 24 25 26 27 28
000
FTPA31 PHFO 250500
TAFLIH
TAF
PHLI 250520Z 2506/2606 06017KT P6SM VCSH SCT015 BKN035
      TEMPO 2506/2510 06017G23KT -SHRA SCT014 BKN025=

USA.gov is the U.S. government's official web portal to all federal, state and local government web resources and services.